sensor_id;sensor_type;location;lat;lon;timestamp;P1;durP1;ratioP1;P2;durP2;ratioP2
1993;SDS011;998;49.906;10.908;2023-07-13T00:00:52;8.93;;;6.27;;
1993;SDS011;998;49.906;10.908;2023-07-13T00:03:21;10.70;;;8.23;;
1993;SDS011;998;49.906;10.908;2023-07-13T00:05:56;13.73;;;7.63;;
1993;SDS011;998;49.906;10.908;2023-07-13T00:08:24;8.70;;;5.60;;
1993;SDS011;998;49.906;10.908;2023-07-13T00:10:53;7.40;;;5.43;;
1993;SDS011;998;49.906;10.908;2023-07-13T00:13:20;9.07;;;5.80;;
1993;SDS011;998;49.906;10.908;2023-07-13T00:15:48;8.10;;;6.20;;
1993;SDS011;998;49.906;10.908;2023-07-13T00:18:16;8.13;;;5.33;;
1993;SDS011;998;49.906;10.908;2023-07-13T00:20:43;9.77;;;5.80;;
1993;SDS011;998;49.906;10.908;2023-07-13T00:23:10;7.97;;;5.53;;
1993;SDS011;998;49.906;10.908;2023-07-13T00:25:38;9.60;;;5.83;;
1993;SDS011;998;49.906;10.908;2023-07-13T00:28:06;11.40;;;8.33;;
1993;SDS011;998;49.906;10.908;2023-07-13T00:30:34;6.73;;;4.50;;
1993;SDS011;998;49.906;10.908;2023-07-13T00:33:01;11.13;;;6.43;;
1993;SDS011;998;49.906;10.908;2023-07-13T00:35:30;6.97;;;4.67;;
1993;SDS011;998;49.906;10.908;2023-07-13T00:37:58;10.17;;;7.27;;
1993;SDS011;998;49.906;10.908;2023-07-13T00:40:25;10.10;;;6.83;;
1993;SDS011;998;49.906;10.908;2023-07-13T00:42:53;6.27;;;4.40;;
1993;SDS011;998;49.906;10.908;2023-07-13T00:48:29;7.53;;;5.97;;
1993;SDS011;998;49.906;10.908;2023-07-13T00:51:00;6.93;;;4.77;;
1993;SDS011;998;49.906;10.908;2023-07-13T00:53:29;5.57;;;4.17;;
1993;SDS011;998;49.906;10.908;2023-07-13T00:55:59;10.97;;;6.50;;
1993;SDS011;998;49.906;10.908;2023-07-13T00:58:27;8.03;;;6.67;;
1993;SDS011;998;49.906;10.908;2023-07-13T01:00:55;16.30;;;9.00;;
1993;SDS011;998;49.906;10.908;2023-07-13T01:03:22;14.80;;;13.70;;
1993;SDS011;998;49.906;10.908;2023-07-13T01:05:51;11.53;;;10.20;;
1993;SDS011;998;49.906;10.908;2023-07-13T01:08:19;9.40;;;7.83;;
1993;SDS011;998;49.906;10.908;2023-07-13T01:10:53;6.80;;;5.67;;
1993;SDS011;998;49.906;10.908;2023-07-13T01:13:21;10.60;;;6.60;;
1993;SDS011;998;49.906;10.908;2023-07-13T01:15:49;7.20;;;5.87;;
1993;SDS011;998;49.906;10.908;2023-07-13T01:18:21;10.27;;;8.83;;
1993;SDS011;998;49.906;10.908;2023-07-13T01:20:52;8.40;;;6.30;;
1993;SDS011;998;49.906;10.908;2023-07-13T01:23:20;6.93;;;5.87;;
1993;SDS011;998;49.906;10.908;2023-07-13T01:25:51;8.80;;;6.50;;
1993;SDS011;998;49.906;10.908;2023-07-13T01:28:20;12.43;;;8.20;;
1993;SDS011;998;49.906;10.908;2023-07-13T01:30:48;7.93;;;6.87;;
1993;SDS011;998;49.906;10.908;2023-07-13T01:33:16;8.90;;;6.47;;
1993;SDS011;998;49.906;10.908;2023-07-13T01:35:44;9.83;;;6.77;;
1993;SDS011;998;49.906;10.908;2023-07-13T01:38:14;8.97;;;7.30;;
1993;SDS011;998;49.906;10.908;2023-07-13T01:40:42;11.33;;;9.80;;
1993;SDS011;998;49.906;10.908;2023-07-13T01:43:10;10.37;;;8.73;;
1993;SDS011;998;49.906;10.908;2023-07-13T01:45:38;11.30;;;8.33;;
1993;SDS011;998;49.906;10.908;2023-07-13T01:48:05;10.37;;;9.33;;
1993;SDS011;998;49.906;10.908;2023-07-13T01:50:33;10.90;;;9.80;;
1993;SDS011;998;49.906;10.908;2023-07-13T01:53:01;9.73;;;8.33;;
1993;SDS011;998;49.906;10.908;2023-07-13T01:55:30;8.37;;;6.83;;
1993;SDS011;998;49.906;10.908;2023-07-13T01:57:58;13.13;;;11.80;;
1993;SDS011;998;49.906;10.908;2023-07-13T02:00:26;9.00;;;7.40;;
1993;SDS011;998;49.906;10.908;2023-07-13T02:02:53;13.43;;;10.57;;
1993;SDS011;998;49.906;10.908;2023-07-13T02:05:20;14.93;;;13.53;;
1993;SDS011;998;49.906;10.908;2023-07-13T02:07:47;12.00;;;10.83;;
1993;SDS011;998;49.906;10.908;2023-07-13T02:10:15;12.07;;;10.80;;
1993;SDS011;998;49.906;10.908;2023-07-13T02:12:44;11.50;;;9.57;;
1993;SDS011;998;49.906;10.908;2023-07-13T02:15:11;13.53;;;12.17;;
1993;SDS011;998;49.906;10.908;2023-07-13T02:17:39;13.60;;;9.60;;
1993;SDS011;998;49.906;10.908;2023-07-13T02:20:06;9.93;;;8.93;;
1993;SDS011;998;49.906;10.908;2023-07-13T02:22:34;13.47;;;12.00;;
1993;SDS011;998;49.906;10.908;2023-07-13T02:25:02;10.07;;;9.07;;
1993;SDS011;998;49.906;10.908;2023-07-13T02:27:29;12.20;;;11.13;;
1993;SDS011;998;49.906;10.908;2023-07-13T02:29:58;10.03;;;9.03;;
1993;SDS011;998;49.906;10.908;2023-07-13T02:32:26;15.67;;;14.17;;
1993;SDS011;998;49.906;10.908;2023-07-13T02:34:53;19.40;;;17.83;;
1993;SDS011;998;49.906;10.908;2023-07-13T02:37:20;13.20;;;11.97;;
1993;SDS011;998;49.906;10.908;2023-07-13T02:39:48;11.07;;;9.90;;
1993;SDS011;998;49.906;10.908;2023-07-13T02:42:15;14.70;;;11.37;;
1993;SDS011;998;49.906;10.908;2023-07-13T02:44:42;12.40;;;11.20;;
1993;SDS011;998;49.906;10.908;2023-07-13T02:47:11;10.70;;;9.63;;
1993;SDS011;998;49.906;10.908;2023-07-13T02:49:39;13.77;;;12.43;;
1993;SDS011;998;49.906;10.908;2023-07-13T02:52:06;16.63;;;15.20;;
1993;SDS011;998;49.906;10.908;2023-07-13T02:54:34;18.27;;;16.90;;
1993;SDS011;998;49.906;10.908;2023-07-13T02:57:01;18.10;;;16.53;;
1993;SDS011;998;49.906;10.908;2023-07-13T02:59:29;24.90;;;23.23;;
1993;SDS011;998;49.906;10.908;2023-07-13T03:01:57;12.43;;;11.33;;
1993;SDS011;998;49.906;10.908;2023-07-13T03:04:26;14.60;;;10.60;;
1993;SDS011;998;49.906;10.908;2023-07-13T03:06:53;9.47;;;8.47;;
1993;SDS011;998;49.906;10.908;2023-07-13T03:09:23;7.30;;;5.93;;
1993;SDS011;998;49.906;10.908;2023-07-13T03:11:52;8.53;;;7.67;;
1993;SDS011;998;49.906;10.908;2023-07-13T03:14:20;8.17;;;7.00;;
1993;SDS011;998;49.906;10.908;2023-07-13T03:16:48;9.13;;;8.17;;
1993;SDS011;998;49.906;10.908;2023-07-13T03:19:15;8.43;;;6.10;;
1993;SDS011;998;49.906;10.908;2023-07-13T03:21:44;9.50;;;7.10;;
1993;SDS011;998;49.906;10.908;2023-07-13T03:24:12;10.20;;;8.90;;
1993;SDS011;998;49.906;10.908;2023-07-13T03:26:40;9.57;;;8.17;;
1993;SDS011;998;49.906;10.908;2023-07-13T03:29:07;9.87;;;8.00;;
1993;SDS011;998;49.906;10.908;2023-07-13T03:31:37;12.03;;;7.57;;
1993;SDS011;998;49.906;10.908;2023-07-13T03:34:04;7.63;;;6.40;;
1993;SDS011;998;49.906;10.908;2023-07-13T03:36:32;9.10;;;5.63;;
1993;SDS011;998;49.906;10.908;2023-07-13T03:39:02;9.60;;;6.63;;
1993;SDS011;998;49.906;10.908;2023-07-13T03:41:33;10.83;;;7.93;;
1993;SDS011;998;49.906;10.908;2023-07-13T03:44:01;9.47;;;7.57;;
1993;SDS011;998;49.906;10.908;2023-07-13T03:46:28;12.73;;;7.67;;
1993;SDS011;998;49.906;10.908;2023-07-13T03:48:57;7.47;;;6.53;;
1993;SDS011;998;49.906;10.908;2023-07-13T03:51:24;9.17;;;6.47;;
1993;SDS011;998;49.906;10.908;2023-07-13T03:53:52;8.90;;;7.60;;
1993;SDS011;998;49.906;10.908;2023-07-13T03:56:21;12.00;;;6.20;;
1993;SDS011;998;49.906;10.908;2023-07-13T03:58:49;8.40;;;6.30;;
1993;SDS011;998;49.906;10.908;2023-07-13T04:01:17;7.73;;;5.60;;
1993;SDS011;998;49.906;10.908;2023-07-13T04:03:46;8.83;;;6.20;;
1993;SDS011;998;49.906;10.908;2023-07-13T04:06:16;8.07;;;5.90;;
1993;SDS011;998;49.906;10.908;2023-07-13T04:08:47;6.57;;;4.73;;
1993;SDS011;998;49.906;10.908;2023-07-13T04:11:15;8.87;;;7.13;;
1993;SDS011;998;49.906;10.908;2023-07-13T04:13:44;9.00;;;7.47;;
1993;SDS011;998;49.906;10.908;2023-07-13T04:16:12;8.50;;;6.83;;
1993;SDS011;998;49.906;10.908;2023-07-13T04:18:39;16.90;;;12.30;;
1993;SDS011;998;49.906;10.908;2023-07-13T04:21:07;7.50;;;5.57;;
1993;SDS011;998;49.906;10.908;2023-07-13T04:23:36;10.47;;;8.50;;
1993;SDS011;998;49.906;10.908;2023-07-13T04:26:04;7.77;;;6.60;;
1993;SDS011;998;49.906;10.908;2023-07-13T04:28:32;10.47;;;8.37;;
1993;SDS011;998;49.906;10.908;2023-07-13T04:31:02;7.93;;;5.83;;
1993;SDS011;998;49.906;10.908;2023-07-13T04:33:29;7.07;;;5.60;;
1993;SDS011;998;49.906;10.908;2023-07-13T04:35:57;12.43;;;8.80;;
1993;SDS011;998;49.906;10.908;2023-07-13T04:38:25;7.37;;;4.80;;
1993;SDS011;998;49.906;10.908;2023-07-13T04:40:54;10.17;;;7.67;;
1993;SDS011;998;49.906;10.908;2023-07-13T04:43:22;7.53;;;6.47;;
1993;SDS011;998;49.906;10.908;2023-07-13T04:45:50;9.93;;;7.33;;
1993;SDS011;998;49.906;10.908;2023-07-13T04:48:19;11.40;;;8.30;;
1993;SDS011;998;49.906;10.908;2023-07-13T04:50:47;10.40;;;8.97;;
1993;SDS011;998;49.906;10.908;2023-07-13T04:53:20;7.37;;;6.20;;
1993;SDS011;998;49.906;10.908;2023-07-13T04:55:47;9.60;;;6.40;;
1993;SDS011;998;49.906;10.908;2023-07-13T04:58:15;11.40;;;9.03;;
1993;SDS011;998;49.906;10.908;2023-07-13T05:00:42;7.93;;;6.57;;
1993;SDS011;998;49.906;10.908;2023-07-13T05:03:10;8.20;;;7.17;;
1993;SDS011;998;49.906;10.908;2023-07-13T05:05:38;9.83;;;7.90;;
1993;SDS011;998;49.906;10.908;2023-07-13T05:08:06;8.93;;;7.03;;
1993;SDS011;998;49.906;10.908;2023-07-13T05:10:34;9.47;;;7.13;;
1993;SDS011;998;49.906;10.908;2023-07-13T05:13:02;6.17;;;4.77;;
1993;SDS011;998;49.906;10.908;2023-07-13T05:15:29;7.70;;;6.67;;
1993;SDS011;998;49.906;10.908;2023-07-13T05:17:57;8.20;;;6.23;;
1993;SDS011;998;49.906;10.908;2023-07-13T05:20:24;8.33;;;6.33;;
1993;SDS011;998;49.906;10.908;2023-07-13T05:22:53;10.57;;;9.50;;
1993;SDS011;998;49.906;10.908;2023-07-13T05:25:20;8.70;;;7.03;;
1993;SDS011;998;49.906;10.908;2023-07-13T05:27:48;7.00;;;4.70;;
1993;SDS011;998;49.906;10.908;2023-07-13T05:30:15;13.30;;;9.60;;
1993;SDS011;998;49.906;10.908;2023-07-13T05:32:43;9.77;;;8.03;;
1993;SDS011;998;49.906;10.908;2023-07-13T05:35:11;10.00;;;8.60;;
1993;SDS011;998;49.906;10.908;2023-07-13T05:37:38;9.47;;;7.30;;
1993;SDS011;998;49.906;10.908;2023-07-13T05:40:07;10.87;;;8.40;;
1993;SDS011;998;49.906;10.908;2023-07-13T05:42:35;7.57;;;6.00;;
1993;SDS011;998;49.906;10.908;2023-07-13T05:45:03;9.00;;;7.40;;
1993;SDS011;998;49.906;10.908;2023-07-13T05:47:31;7.83;;;5.13;;
1993;SDS011;998;49.906;10.908;2023-07-13T05:49:58;8.17;;;5.50;;
1993;SDS011;998;49.906;10.908;2023-07-13T05:52:25;9.43;;;6.20;;
1993;SDS011;998;49.906;10.908;2023-07-13T05:54:53;9.37;;;7.60;;
1993;SDS011;998;49.906;10.908;2023-07-13T05:57:21;11.30;;;9.47;;
1993;SDS011;998;49.906;10.908;2023-07-13T05:59:49;10.77;;;8.70;;
1993;SDS011;998;49.906;10.908;2023-07-13T06:02:16;9.90;;;6.60;;
1993;SDS011;998;49.906;10.908;2023-07-13T06:04:44;11.43;;;8.60;;
1993;SDS011;998;49.906;10.908;2023-07-13T06:07:11;10.53;;;8.27;;
1993;SDS011;998;49.906;10.908;2023-07-13T06:09:38;14.27;;;9.13;;
1993;SDS011;998;49.906;10.908;2023-07-13T06:12:06;12.93;;;7.33;;
1993;SDS011;998;49.906;10.908;2023-07-13T06:14:35;12.70;;;9.37;;
1993;SDS011;998;49.906;10.908;2023-07-13T06:17:03;8.83;;;5.33;;
1993;SDS011;998;49.906;10.908;2023-07-13T06:19:31;10.00;;;7.20;;
1993;SDS011;998;49.906;10.908;2023-07-13T06:21:59;10.03;;;8.23;;
1993;SDS011;998;49.906;10.908;2023-07-13T06:24:27;10.77;;;9.50;;
1993;SDS011;998;49.906;10.908;2023-07-13T06:26:55;8.67;;;7.83;;
1993;SDS011;998;49.906;10.908;2023-07-13T06:29:22;9.43;;;7.40;;
1993;SDS011;998;49.906;10.908;2023-07-13T06:31:51;9.83;;;5.93;;
1993;SDS011;998;49.906;10.908;2023-07-13T06:34:18;12.50;;;8.90;;
1993;SDS011;998;49.906;10.908;2023-07-13T06:36:46;7.27;;;4.83;;
1993;SDS011;998;49.906;10.908;2023-07-13T06:39:13;9.47;;;5.23;;
1993;SDS011;998;49.906;10.908;2023-07-13T06:41:41;8.30;;;4.97;;
1993;SDS011;998;49.906;10.908;2023-07-13T06:44:08;13.03;;;6.33;;
1993;SDS011;998;49.906;10.908;2023-07-13T06:46:35;9.60;;;7.00;;
1993;SDS011;998;49.906;10.908;2023-07-13T06:49:03;16.43;;;4.90;;
1993;SDS011;998;49.906;10.908;2023-07-13T06:51:30;11.50;;;7.10;;
1993;SDS011;998;49.906;10.908;2023-07-13T06:53:58;10.50;;;6.53;;
1993;SDS011;998;49.906;10.908;2023-07-13T06:56:25;9.33;;;7.00;;
1993;SDS011;998;49.906;10.908;2023-07-13T06:58:52;8.00;;;6.10;;
1993;SDS011;998;49.906;10.908;2023-07-13T07:01:20;6.90;;;5.50;;
1993;SDS011;998;49.906;10.908;2023-07-13T07:03:47;6.27;;;4.93;;
1993;SDS011;998;49.906;10.908;2023-07-13T07:06:18;12.73;;;6.37;;
1993;SDS011;998;49.906;10.908;2023-07-13T07:08:48;10.90;;;6.20;;
1993;SDS011;998;49.906;10.908;2023-07-13T07:11:17;10.40;;;5.90;;
1993;SDS011;998;49.906;10.908;2023-07-13T07:13:45;10.33;;;5.73;;
1993;SDS011;998;49.906;10.908;2023-07-13T07:16:12;7.73;;;6.70;;
1993;SDS011;998;49.906;10.908;2023-07-13T07:18:40;17.93;;;9.87;;
1993;SDS011;998;49.906;10.908;2023-07-13T07:21:07;9.07;;;7.17;;
1993;SDS011;998;49.906;10.908;2023-07-13T07:23:36;9.70;;;7.37;;
1993;SDS011;998;49.906;10.908;2023-07-13T07:26:03;9.63;;;6.27;;
1993;SDS011;998;49.906;10.908;2023-07-13T07:28:34;23.23;;;8.13;;
1993;SDS011;998;49.906;10.908;2023-07-13T07:31:01;8.07;;;5.30;;
1993;SDS011;998;49.906;10.908;2023-07-13T07:33:28;9.10;;;7.83;;
1993;SDS011;998;49.906;10.908;2023-07-13T07:35:56;7.80;;;4.90;;
1993;SDS011;998;49.906;10.908;2023-07-13T07:38:23;8.53;;;5.40;;
1993;SDS011;998;49.906;10.908;2023-07-13T07:40:52;13.63;;;4.87;;
1993;SDS011;998;49.906;10.908;2023-07-13T07:43:20;12.30;;;6.40;;
1993;SDS011;998;49.906;10.908;2023-07-13T07:45:47;8.57;;;6.03;;
1993;SDS011;998;49.906;10.908;2023-07-13T07:48:14;10.50;;;6.10;;
1993;SDS011;998;49.906;10.908;2023-07-13T07:50:42;20.00;;;8.20;;
1993;SDS011;998;49.906;10.908;2023-07-13T07:53:10;11.53;;;6.07;;
1993;SDS011;998;49.906;10.908;2023-07-13T07:55:38;11.93;;;8.10;;
1993;SDS011;998;49.906;10.908;2023-07-13T07:58:07;11.10;;;5.43;;
1993;SDS011;998;49.906;10.908;2023-07-13T08:00:34;7.53;;;5.70;;
1993;SDS011;998;49.906;10.908;2023-07-13T08:03:01;9.13;;;5.57;;
1993;SDS011;998;49.906;10.908;2023-07-13T08:05:29;10.10;;;8.17;;
1993;SDS011;998;49.906;10.908;2023-07-13T08:07:56;9.10;;;7.90;;
1993;SDS011;998;49.906;10.908;2023-07-13T08:10:24;10.73;;;9.57;;
1993;SDS011;998;49.906;10.908;2023-07-13T08:12:51;8.70;;;5.80;;
1993;SDS011;998;49.906;10.908;2023-07-13T08:15:20;11.07;;;8.30;;
1993;SDS011;998;49.906;10.908;2023-07-13T08:17:47;9.47;;;6.50;;
1993;SDS011;998;49.906;10.908;2023-07-13T08:20:15;9.90;;;8.07;;
1993;SDS011;998;49.906;10.908;2023-07-13T08:22:43;9.70;;;8.40;;
1993;SDS011;998;49.906;10.908;2023-07-13T08:25:10;9.10;;;6.90;;
1993;SDS011;998;49.906;10.908;2023-07-13T08:27:37;9.00;;;5.97;;
1993;SDS011;998;49.906;10.908;2023-07-13T08:30:05;8.07;;;7.23;;
1993;SDS011;998;49.906;10.908;2023-07-13T08:32:35;12.50;;;9.27;;
1993;SDS011;998;49.906;10.908;2023-07-13T08:35:04;10.27;;;6.33;;
1993;SDS011;998;49.906;10.908;2023-07-13T08:37:32;7.63;;;5.90;;
1993;SDS011;998;49.906;10.908;2023-07-13T08:39:59;7.50;;;6.13;;
1993;SDS011;998;49.906;10.908;2023-07-13T08:42:30;8.67;;;5.87;;
1993;SDS011;998;49.906;10.908;2023-07-13T08:45:04;10.10;;;7.13;;
1993;SDS011;998;49.906;10.908;2023-07-13T08:47:42;7.63;;;6.63;;
1993;SDS011;998;49.906;10.908;2023-07-13T08:50:13;6.50;;;5.23;;
1993;SDS011;998;49.906;10.908;2023-07-13T08:52:43;10.30;;;7.70;;
1993;SDS011;998;49.906;10.908;2023-07-13T08:55:12;6.10;;;4.90;;
1993;SDS011;998;49.906;10.908;2023-07-13T08:57:41;6.10;;;5.23;;
1993;SDS011;998;49.906;10.908;2023-07-13T09:00:12;8.87;;;6.10;;
1993;SDS011;998;49.906;10.908;2023-07-13T09:02:44;7.80;;;6.07;;
1993;SDS011;998;49.906;10.908;2023-07-13T09:05:17;7.60;;;5.27;;
1993;SDS011;998;49.906;10.908;2023-07-13T09:08:04;10.00;;;7.13;;
1993;SDS011;998;49.906;10.908;2023-07-13T09:10:44;7.83;;;6.87;;
1993;SDS011;998;49.906;10.908;2023-07-13T09:13:16;6.93;;;5.53;;
1993;SDS011;998;49.906;10.908;2023-07-13T09:15:53;7.57;;;6.47;;
1993;SDS011;998;49.906;10.908;2023-07-13T09:18:23;11.30;;;9.07;;
1993;SDS011;998;49.906;10.908;2023-07-13T09:20:55;8.43;;;6.63;;
1993;SDS011;998;49.906;10.908;2023-07-13T09:23:27;10.27;;;5.83;;
1993;SDS011;998;49.906;10.908;2023-07-13T09:25:59;8.43;;;4.70;;
1993;SDS011;998;49.906;10.908;2023-07-13T09:28:33;11.10;;;9.27;;
1993;SDS011;998;49.906;10.908;2023-07-13T09:31:06;7.50;;;4.83;;
1993;SDS011;998;49.906;10.908;2023-07-13T09:33:40;8.93;;;7.10;;
1993;SDS011;998;49.906;10.908;2023-07-13T09:36:20;8.90;;;8.00;;
1993;SDS011;998;49.906;10.908;2023-07-13T09:38:54;9.47;;;6.80;;
1993;SDS011;998;49.906;10.908;2023-07-13T09:41:32;9.93;;;7.17;;
1993;SDS011;998;49.906;10.908;2023-07-13T09:44:08;13.07;;;11.67;;
1993;SDS011;998;49.906;10.908;2023-07-13T09:46:37;10.97;;;9.80;;
1993;SDS011;998;49.906;10.908;2023-07-13T09:49:09;7.50;;;6.77;;
1993;SDS011;998;49.906;10.908;2023-07-13T09:51:37;9.10;;;7.80;;
1993;SDS011;998;49.906;10.908;2023-07-13T09:54:04;10.83;;;9.30;;
1993;SDS011;998;49.906;10.908;2023-07-13T09:56:32;11.53;;;10.33;;
1993;SDS011;998;49.906;10.908;2023-07-13T09:58:59;7.97;;;6.23;;
1993;SDS011;998;49.906;10.908;2023-07-13T10:01:34;8.90;;;7.93;;
1993;SDS011;998;49.906;10.908;2023-07-13T10:04:10;9.93;;;8.50;;
1993;SDS011;998;49.906;10.908;2023-07-13T10:06:40;14.30;;;10.60;;
1993;SDS011;998;49.906;10.908;2023-07-13T10:09:08;12.50;;;7.73;;
1993;SDS011;998;49.906;10.908;2023-07-13T10:11:39;9.40;;;6.63;;
1993;SDS011;998;49.906;10.908;2023-07-13T10:14:10;9.37;;;7.83;;
1993;SDS011;998;49.906;10.908;2023-07-13T10:16:41;8.17;;;6.20;;
1993;SDS011;998;49.906;10.908;2023-07-13T10:19:12;9.03;;;7.00;;
1993;SDS011;998;49.906;10.908;2023-07-13T10:21:48;7.37;;;6.13;;
1993;SDS011;998;49.906;10.908;2023-07-13T10:24:20;11.07;;;8.70;;
1993;SDS011;998;49.906;10.908;2023-07-13T10:26:52;6.50;;;5.40;;
1993;SDS011;998;49.906;10.908;2023-07-13T10:29:23;6.63;;;5.47;;
1993;SDS011;998;49.906;10.908;2023-07-13T10:31:54;8.60;;;7.50;;
1993;SDS011;998;49.906;10.908;2023-07-13T10:34:23;15.03;;;9.00;;
1993;SDS011;998;49.906;10.908;2023-07-13T10:36:51;9.13;;;5.43;;
1993;SDS011;998;49.906;10.908;2023-07-13T10:39:19;8.27;;;5.07;;
1993;SDS011;998;49.906;10.908;2023-07-13T10:41:49;7.97;;;6.30;;
1993;SDS011;998;49.906;10.908;2023-07-13T10:44:21;8.47;;;6.23;;
1993;SDS011;998;49.906;10.908;2023-07-13T10:46:52;7.40;;;4.60;;
1993;SDS011;998;49.906;10.908;2023-07-13T10:49:24;6.20;;;4.70;;
1993;SDS011;998;49.906;10.908;2023-07-13T10:51:55;9.97;;;7.50;;
1993;SDS011;998;49.906;10.908;2023-07-13T10:54:26;8.87;;;5.80;;
1993;SDS011;998;49.906;10.908;2023-07-13T10:57:14;7.00;;;5.17;;
1993;SDS011;998;49.906;10.908;2023-07-13T10:59:48;7.57;;;6.47;;
1993;SDS011;998;49.906;10.908;2023-07-13T11:02:36;6.70;;;4.13;;
1993;SDS011;998;49.906;10.908;2023-07-13T11:05:16;6.60;;;4.10;;
1993;SDS011;998;49.906;10.908;2023-07-13T11:07:56;9.27;;;6.40;;
1993;SDS011;998;49.906;10.908;2023-07-13T11:10:50;8.97;;;5.23;;
1993;SDS011;998;49.906;10.908;2023-07-13T11:16:35;8.50;;;6.40;;
1993;SDS011;998;49.906;10.908;2023-07-13T11:19:26;7.93;;;6.30;;
1993;SDS011;998;49.906;10.908;2023-07-13T11:22:11;7.37;;;5.70;;
1993;SDS011;998;49.906;10.908;2023-07-13T11:24:48;8.37;;;6.83;;
1993;SDS011;998;49.906;10.908;2023-07-13T11:27:33;7.73;;;6.20;;
1993;SDS011;998;49.906;10.908;2023-07-13T11:30:07;7.80;;;4.97;;
1993;SDS011;998;49.906;10.908;2023-07-13T11:32:44;9.07;;;4.93;;
1993;SDS011;998;49.906;10.908;2023-07-13T11:35:17;8.70;;;5.83;;
1993;SDS011;998;49.906;10.908;2023-07-13T11:37:50;9.80;;;6.60;;
1993;SDS011;998;49.906;10.908;2023-07-13T11:40:18;7.27;;;5.70;;
1993;SDS011;998;49.906;10.908;2023-07-13T11:42:48;6.93;;;5.40;;
1993;SDS011;998;49.906;10.908;2023-07-13T11:45:19;8.23;;;6.43;;
1993;SDS011;998;49.906;10.908;2023-07-13T11:47:49;10.07;;;8.60;;
1993;SDS011;998;49.906;10.908;2023-07-13T11:50:18;7.37;;;5.33;;
1993;SDS011;998;49.906;10.908;2023-07-13T11:52:46;8.00;;;5.40;;
1993;SDS011;998;49.906;10.908;2023-07-13T11:55:17;7.20;;;4.60;;
1993;SDS011;998;49.906;10.908;2023-07-13T11:57:49;7.30;;;5.17;;
1993;SDS011;998;49.906;10.908;2023-07-13T12:00:20;10.23;;;7.20;;
1993;SDS011;998;49.906;10.908;2023-07-13T12:02:50;6.60;;;5.03;;
1993;SDS011;998;49.906;10.908;2023-07-13T12:05:20;10.40;;;4.80;;
1993;SDS011;998;49.906;10.908;2023-07-13T12:07:48;5.87;;;4.87;;
1993;SDS011;998;49.906;10.908;2023-07-13T12:10:21;8.50;;;6.03;;
1993;SDS011;998;49.906;10.908;2023-07-13T12:12:52;7.27;;;5.73;;
1993;SDS011;998;49.906;10.908;2023-07-13T12:15:22;7.07;;;5.03;;
1993;SDS011;998;49.906;10.908;2023-07-13T12:17:55;6.30;;;4.40;;
1993;SDS011;998;49.906;10.908;2023-07-13T12:20:23;7.30;;;5.10;;
1993;SDS011;998;49.906;10.908;2023-07-13T12:22:52;6.90;;;4.60;;
1993;SDS011;998;49.906;10.908;2023-07-13T12:25:22;9.60;;;6.20;;
1993;SDS011;998;49.906;10.908;2023-07-13T12:27:50;8.27;;;4.90;;
1993;SDS011;998;49.906;10.908;2023-07-13T12:30:25;7.60;;;4.17;;
1993;SDS011;998;49.906;10.908;2023-07-13T12:32:56;5.70;;;4.33;;
1993;SDS011;998;49.906;10.908;2023-07-13T12:35:25;9.37;;;4.50;;
1993;SDS011;998;49.906;10.908;2023-07-13T12:38:00;10.30;;;7.37;;
1993;SDS011;998;49.906;10.908;2023-07-13T12:40:31;6.50;;;4.30;;
1993;SDS011;998;49.906;10.908;2023-07-13T12:43:01;6.40;;;4.80;;
1993;SDS011;998;49.906;10.908;2023-07-13T12:45:32;7.50;;;4.87;;
1993;SDS011;998;49.906;10.908;2023-07-13T12:48:03;6.60;;;4.43;;
1993;SDS011;998;49.906;10.908;2023-07-13T12:50:36;9.03;;;6.37;;
1993;SDS011;998;49.906;10.908;2023-07-13T12:53:09;9.70;;;7.10;;
1993;SDS011;998;49.906;10.908;2023-07-13T12:55:43;12.40;;;4.60;;
1993;SDS011;998;49.906;10.908;2023-07-13T12:58:15;6.97;;;4.97;;
1993;SDS011;998;49.906;10.908;2023-07-13T13:00:48;9.27;;;5.93;;
1993;SDS011;998;49.906;10.908;2023-07-13T13:03:21;9.50;;;6.20;;
1993;SDS011;998;49.906;10.908;2023-07-13T13:05:57;9.53;;;6.80;;
1993;SDS011;998;49.906;10.908;2023-07-13T13:08:28;8.20;;;6.30;;
1993;SDS011;998;49.906;10.908;2023-07-13T13:10:57;7.40;;;5.50;;
1993;SDS011;998;49.906;10.908;2023-07-13T13:13:25;8.43;;;4.63;;
1993;SDS011;998;49.906;10.908;2023-07-13T13:15:52;6.97;;;3.70;;
1993;SDS011;998;49.906;10.908;2023-07-13T13:18:22;9.10;;;6.50;;
1993;SDS011;998;49.906;10.908;2023-07-13T13:20:50;5.97;;;4.37;;
1993;SDS011;998;49.906;10.908;2023-07-13T13:23:18;7.47;;;5.33;;
1993;SDS011;998;49.906;10.908;2023-07-13T13:25:50;9.23;;;5.40;;
1993;SDS011;998;49.906;10.908;2023-07-13T13:28:20;8.63;;;6.10;;
1993;SDS011;998;49.906;10.908;2023-07-13T13:30:48;9.60;;;5.43;;
1993;SDS011;998;49.906;10.908;2023-07-13T13:33:18;9.80;;;5.67;;
1993;SDS011;998;49.906;10.908;2023-07-13T13:35:48;7.60;;;4.30;;
1993;SDS011;998;49.906;10.908;2023-07-13T13:38:16;7.83;;;4.33;;
1993;SDS011;998;49.906;10.908;2023-07-13T13:40:45;7.60;;;5.57;;
1993;SDS011;998;49.906;10.908;2023-07-13T13:43:16;7.73;;;5.30;;
1993;SDS011;998;49.906;10.908;2023-07-13T13:45:51;8.57;;;5.30;;
1993;SDS011;998;49.906;10.908;2023-07-13T13:48:28;9.43;;;6.43;;
1993;SDS011;998;49.906;10.908;2023-07-13T13:50:58;6.47;;;5.23;;
1993;SDS011;998;49.906;10.908;2023-07-13T13:53:26;7.40;;;4.40;;
1993;SDS011;998;49.906;10.908;2023-07-13T13:55:54;6.03;;;3.60;;
1993;SDS011;998;49.906;10.908;2023-07-13T13:58:22;6.03;;;4.13;;
1993;SDS011;998;49.906;10.908;2023-07-13T14:00:50;7.17;;;4.20;;
1993;SDS011;998;49.906;10.908;2023-07-13T14:03:18;7.80;;;5.70;;
1993;SDS011;998;49.906;10.908;2023-07-13T14:05:47;7.13;;;4.00;;
1993;SDS011;998;49.906;10.908;2023-07-13T14:08:16;7.50;;;4.77;;
1993;SDS011;998;49.906;10.908;2023-07-13T14:10:45;6.83;;;4.63;;
1993;SDS011;998;49.906;10.908;2023-07-13T14:13:15;9.83;;;7.23;;
1993;SDS011;998;49.906;10.908;2023-07-13T14:15:46;10.50;;;4.67;;
1993;SDS011;998;49.906;10.908;2023-07-13T14:18:14;10.13;;;6.07;;
1993;SDS011;998;49.906;10.908;2023-07-13T14:20:43;7.13;;;4.87;;
1993;SDS011;998;49.906;10.908;2023-07-13T14:23:11;8.43;;;5.30;;
1993;SDS011;998;49.906;10.908;2023-07-13T14:25:39;9.17;;;5.27;;
1993;SDS011;998;49.906;10.908;2023-07-13T14:28:11;6.80;;;5.00;;
1993;SDS011;998;49.906;10.908;2023-07-13T14:30:48;7.63;;;4.67;;
1993;SDS011;998;49.906;10.908;2023-07-13T14:33:16;6.90;;;4.33;;
1993;SDS011;998;49.906;10.908;2023-07-13T14:35:43;8.97;;;5.93;;
1993;SDS011;998;49.906;10.908;2023-07-13T14:38:11;8.83;;;5.80;;
1993;SDS011;998;49.906;10.908;2023-07-13T14:40:42;7.70;;;4.00;;
1993;SDS011;998;49.906;10.908;2023-07-13T14:43:10;7.57;;;5.07;;
1993;SDS011;998;49.906;10.908;2023-07-13T14:45:39;7.37;;;5.23;;
1993;SDS011;998;49.906;10.908;2023-07-13T14:48:15;10.53;;;7.73;;
1993;SDS011;998;49.906;10.908;2023-07-13T14:50:44;9.10;;;5.77;;
1993;SDS011;998;49.906;10.908;2023-07-13T14:53:13;8.47;;;5.87;;
1993;SDS011;998;49.906;10.908;2023-07-13T14:55:40;8.80;;;5.60;;
1993;SDS011;998;49.906;10.908;2023-07-13T14:58:08;11.23;;;6.23;;
1993;SDS011;998;49.906;10.908;2023-07-13T15:00:36;7.37;;;5.43;;
1993;SDS011;998;49.906;10.908;2023-07-13T15:03:03;8.23;;;4.70;;
1993;SDS011;998;49.906;10.908;2023-07-13T15:05:34;9.53;;;5.40;;
1993;SDS011;998;49.906;10.908;2023-07-13T15:08:02;13.17;;;6.87;;
1993;SDS011;998;49.906;10.908;2023-07-13T15:10:31;8.97;;;7.30;;
1993;SDS011;998;49.906;10.908;2023-07-13T15:13:00;8.03;;;6.17;;
1993;SDS011;998;49.906;10.908;2023-07-13T15:15:40;10.70;;;8.80;;
1993;SDS011;998;49.906;10.908;2023-07-13T15:18:09;12.13;;;9.37;;
1993;SDS011;998;49.906;10.908;2023-07-13T15:20:40;9.10;;;5.33;;
1993;SDS011;998;49.906;10.908;2023-07-13T15:23:10;6.67;;;4.30;;
1993;SDS011;998;49.906;10.908;2023-07-13T15:25:37;9.30;;;5.73;;
1993;SDS011;998;49.906;10.908;2023-07-13T15:28:05;8.60;;;6.13;;
1993;SDS011;998;49.906;10.908;2023-07-13T15:30:33;8.33;;;4.43;;